createdAt,value
2018-09-05T00:00:11.879Z,28.25
2018-09-05T00:00:45.433Z,28.38
2018-09-05T00:01:18.919Z,29.60
2018-09-05T00:01:52.509Z,27.93
2018-09-05T00:02:26.043Z,28.10
2018-09-05T00:02:59.561Z,27.85
2018-09-05T00:03:33.089Z,28.30
2018-09-05T00:04:06.657Z,27.45
2018-09-05T00:04:40.302Z,28.32
2018-09-05T00:05:13.798Z,28.47
2018-09-05T00:05:47.308Z,28.83
2018-09-05T00:06:20.837Z,28.15
2018-09-05T00:06:54.394Z,28.40
2018-09-05T00:07:27.927Z,27.93
2018-09-05T00:08:01.485Z,28.07
2018-09-05T00:08:35.012Z,27.75
2018-09-05T00:09:09.117Z,28.57
2018-09-05T00:09:42.649Z,26.07
2018-09-05T00:10:16.192Z,27.48
2018-09-05T00:10:49.728Z,27.93
2018-09-05T00:11:23.512Z,28.00
2018-09-05T00:11:57.083Z,28.57
2018-09-05T00:12:30.859Z,27.90
2018-09-05T00:13:04.867Z,26.97
2018-09-05T00:13:38.398Z,26.90
2018-09-05T00:14:11.898Z,27.75
2018-09-05T00:14:45.471Z,27.80
2018-09-05T00:15:19.037Z,27.70
2018-09-05T00:15:52.629Z,28.12
2018-09-05T00:16:26.219Z,27.90
2018-09-05T00:16:59.709Z,28.62
2018-09-05T00:17:33.261Z,27.75
2018-09-05T00:18:06.807Z,28.00
2018-09-05T00:18:40.369Z,28.50
2018-09-05T00:19:13.919Z,26.97
2018-09-05T00:19:47.471Z,28.30
2018-09-05T00:20:21.017Z,27.52
2018-09-05T00:20:54.557Z,27.17
2018-09-05T00:21:28.083Z,28.15
2018-09-05T00:22:01.607Z,28.40
2018-09-05T00:22:35.185Z,27.85
2018-09-05T00:23:08.755Z,28.52
2018-09-05T00:23:42.287Z,27.80
2018-09-05T00:24:15.839Z,26.97
2018-09-05T00:24:49.363Z,28.60
2018-09-05T00:25:22.921Z,28.80
2018-09-05T00:25:56.531Z,27.90
2018-09-05T00:26:30.061Z,28.25
2018-09-05T00:27:04.077Z,28.40
2018-09-05T00:27:37.615Z,28.12
2018-09-05T00:28:11.139Z,27.13
2018-09-05T00:28:44.673Z,28.25
2018-09-05T00:29:18.199Z,27.80
2018-09-05T00:29:51.807Z,27.87
2018-09-05T00:30:25.369Z,27.05
2018-09-05T00:30:58.915Z,28.15
2018-09-05T00:31:32.427Z,28.42
2018-09-05T00:32:06.149Z,27.93
2018-09-05T00:32:39.697Z,27.80
2018-09-05T00:33:13.217Z,27.27
2018-09-05T00:33:46.725Z,28.38
2018-09-05T00:34:20.265Z,27.27
2018-09-05T00:34:53.817Z,27.75
2018-09-05T00:35:27.351Z,27.00
2018-09-05T00:36:00.911Z,27.82
2018-09-05T00:36:34.425Z,28.02
2018-09-05T00:37:07.945Z,28.47
2018-09-05T00:37:41.491Z,28.17
2018-09-05T00:38:15.041Z,28.50
2018-09-05T00:38:48.574Z,28.67
2018-09-05T00:39:22.115Z,27.93
2018-09-05T00:39:55.649Z,28.52
2018-09-05T00:40:29.213Z,28.83
2018-09-05T00:41:02.894Z,28.40
2018-09-05T00:41:36.439Z,28.23
2018-09-05T00:42:09.959Z,28.15
2018-09-05T00:42:43.533Z,28.77
2018-09-05T00:43:17.095Z,28.15
2018-09-05T00:43:50.612Z,27.15
2018-09-05T00:44:24.115Z,27.15
2018-09-05T00:44:57.629Z,27.52
2018-09-05T00:45:31.103Z,28.67
2018-09-05T00:46:04.675Z,28.60
2018-09-05T00:46:38.177Z,27.77
2018-09-05T00:47:11.694Z,27.87
2018-09-05T00:47:45.253Z,27.75
2018-09-05T00:48:18.831Z,27.95
2018-09-05T00:48:52.388Z,27.17
2018-09-05T00:49:25.911Z,28.83
2018-09-05T00:50:00.285Z,28.23
2018-09-05T00:50:33.829Z,27.85
2018-09-05T00:51:07.399Z,27.45
2018-09-05T00:51:40.951Z,27.77
2018-09-05T00:52:14.479Z,27.15
2018-09-05T00:52:48.041Z,28.62
2018-09-05T00:53:21.647Z,28.27
2018-09-05T00:53:55.226Z,27.17
2018-09-05T00:54:28.737Z,28.27
2018-09-05T00:55:02.271Z,27.80
2018-09-05T00:55:35.776Z,28.73
2018-09-05T00:56:09.335Z,28.17
2018-09-05T00:56:42.924Z,28.80
2018-09-05T00:57:16.467Z,27.75
2018-09-05T00:57:49.987Z,27.52
2018-09-05T00:58:23.537Z,28.50
2018-09-05T00:58:57.037Z,28.80
2018-09-05T00:59:30.559Z,28.70
2018-09-05T01:00:04.471Z,28.30
2018-09-05T01:00:38.006Z,27.87
2018-09-05T01:01:11.539Z,28.05
2018-09-05T01:01:45.088Z,28.32
2018-09-05T01:02:18.676Z,28.10
2018-09-05T01:02:52.216Z,28.38
2018-09-05T01:03:25.739Z,27.52
2018-09-05T01:03:59.475Z,27.90
2018-09-05T01:04:33.024Z,28.60
2018-09-05T01:05:06.657Z,28.07
2018-09-05T01:05:40.476Z,28.27
2018-09-05T01:06:14.040Z,28.52
2018-09-05T01:06:47.581Z,28.27
2018-09-05T01:07:27.842Z,28.80
2018-09-05T01:08:01.440Z,28.70
2018-09-05T01:08:34.965Z,28.02
2018-09-05T01:09:09.020Z,28.60
2018-09-05T01:09:42.519Z,28.40
2018-09-05T01:10:16.059Z,28.75
2018-09-05T01:10:49.568Z,28.85
2018-09-05T01:11:23.127Z,27.85
2018-09-05T01:11:56.720Z,28.17
2018-09-05T01:12:30.315Z,28.23
2018-09-05T01:13:04.198Z,28.45
2018-09-05T01:13:37.750Z,28.27
2018-09-05T01:14:11.272Z,27.50
2018-09-05T01:14:44.852Z,28.17
2018-09-05T01:15:18.409Z,27.77
2018-09-05T01:15:51.927Z,28.25
2018-09-05T01:16:25.561Z,27.13
2018-09-05T01:16:59.099Z,27.17
2018-09-05T01:17:32.634Z,28.00
2018-09-05T01:18:06.212Z,27.42
2018-09-05T01:18:39.741Z,26.95
2018-09-05T01:19:13.264Z,28.35
2018-09-05T01:19:46.817Z,28.17
2018-09-05T01:20:20.396Z,27.22
2018-09-05T01:20:53.919Z,27.52
2018-09-05T01:21:27.454Z,28.38
2018-09-05T01:22:01.000Z,28.07
2018-09-05T01:22:34.544Z,26.37
2018-09-05T01:23:08.092Z,27.13
2018-09-05T01:23:41.610Z,27.82
2018-09-05T01:24:15.125Z,27.60
2018-09-05T01:24:48.718Z,28.02
2018-09-05T01:25:22.279Z,27.25
2018-09-05T01:25:55.918Z,27.70
2018-09-05T01:26:29.443Z,27.67
2018-09-05T01:27:03.014Z,28.92
2018-09-05T01:27:37.146Z,27.82
2018-09-05T01:28:10.704Z,27.50
2018-09-05T01:28:44.227Z,27.70
2018-09-05T01:29:17.732Z,27.87
2018-09-05T01:29:51.278Z,27.50
2018-09-05T01:30:27.394Z,27.65
2018-09-05T01:31:00.925Z,28.10
2018-09-05T01:31:34.486Z,26.65
2018-09-05T01:32:09.370Z,26.60
2018-09-05T01:32:42.880Z,28.45
2018-09-05T01:33:16.418Z,27.60
2018-09-05T01:33:50.017Z,27.67
2018-09-05T01:34:23.578Z,27.25
2018-09-05T01:34:57.120Z,26.97
2018-09-05T01:35:30.610Z,28.02
2018-09-05T01:36:11.554Z,27.48
2018-09-05T01:36:45.120Z,27.05
2018-09-05T01:37:18.649Z,27.15
2018-09-05T01:37:52.205Z,26.97
2018-09-05T01:38:25.742Z,27.27
2018-09-05T01:38:59.256Z,27.32
2018-09-05T01:39:32.793Z,27.37
2018-09-05T01:40:06.413Z,27.40
2018-09-05T01:40:39.933Z,28.12
2018-09-05T01:41:14.344Z,27.35
2018-09-05T01:41:47.862Z,27.93
2018-09-05T01:42:21.394Z,26.97
2018-09-05T01:42:55.172Z,26.82
2018-09-05T01:43:28.676Z,26.60
2018-09-05T01:44:02.206Z,27.47
2018-09-05T01:44:35.732Z,28.20
2018-09-05T01:45:09.238Z,27.25
2018-09-05T01:45:42.722Z,27.22
2018-09-05T01:46:16.241Z,27.05
2018-09-05T01:46:49.806Z,27.80
2018-09-05T01:47:23.345Z,26.77
2018-09-05T01:47:56.890Z,26.70
2018-09-05T01:48:30.440Z,28.12
2018-09-05T01:49:04.033Z,28.25
2018-09-05T01:49:37.550Z,27.98
2018-09-05T01:50:11.248Z,27.07
2018-09-05T01:50:44.788Z,26.52
2018-09-05T01:51:18.297Z,26.85
2018-09-05T01:51:56.916Z,27.10
2018-09-05T01:52:30.478Z,27.58
2018-09-05T01:53:03.988Z,27.40
2018-09-05T01:53:37.552Z,27.82
2018-09-05T01:54:11.081Z,26.48
2018-09-05T01:54:44.632Z,27.15
2018-09-05T01:55:18.158Z,26.68
2018-09-05T01:55:51.664Z,27.13
2018-09-05T01:56:25.222Z,27.37
2018-09-05T01:56:58.742Z,26.87
2018-09-05T01:57:32.211Z,26.80
2018-09-05T01:58:05.912Z,26.70
2018-09-05T01:58:39.456Z,27.07
2018-09-05T01:59:12.978Z,26.93
2018-09-05T01:59:46.519Z,27.48
2018-09-05T02:00:25.717Z,26.93
2018-09-05T02:00:59.236Z,27.25
2018-09-05T02:01:32.777Z,26.93
2018-09-05T02:02:06.545Z,26.82
2018-09-05T02:02:40.051Z,26.25
2018-09-05T02:03:13.560Z,26.42
2018-09-05T02:03:47.100Z,26.20
2018-09-05T02:04:20.758Z,26.45
2018-09-05T02:04:55.093Z,25.52
2018-09-05T02:05:28.851Z,25.68
2018-09-05T02:06:02.462Z,26.27
2018-09-05T02:06:36.096Z,26.30
2018-09-05T02:07:09.695Z,26.77
2018-09-05T02:07:43.224Z,26.60
2018-09-05T02:08:16.755Z,26.27
2018-09-05T02:08:50.635Z,26.05
2018-09-05T02:09:24.197Z,26.73
2018-09-05T02:09:57.709Z,26.52
2018-09-05T02:10:31.860Z,25.90
2018-09-05T02:11:05.420Z,27.02
2018-09-05T02:11:38.955Z,26.75
2018-09-05T02:12:12.453Z,25.40
2018-09-05T02:12:45.961Z,25.37
2018-09-05T02:13:19.489Z,26.33
2018-09-05T02:13:53.035Z,25.92
2018-09-05T02:14:26.552Z,25.70
2018-09-05T02:15:00.072Z,25.82
2018-09-05T02:15:33.601Z,25.68
2018-09-05T02:16:07.166Z,26.52
2018-09-05T02:16:41.540Z,24.95
2018-09-05T02:17:15.076Z,25.37
2018-09-05T02:17:48.597Z,26.12
2018-09-05T02:18:22.153Z,25.97
2018-09-05T02:18:55.669Z,25.70
2018-09-05T02:19:29.206Z,25.48
2018-09-05T02:20:02.764Z,25.30
2018-09-05T02:20:36.276Z,25.32
2018-09-05T02:21:09.925Z,25.27
2018-09-05T02:21:43.471Z,24.87
2018-09-05T02:22:16.988Z,25.65
2018-09-05T02:22:50.799Z,25.77
2018-09-05T02:23:24.386Z,25.80
2018-09-05T02:23:57.915Z,24.90
2018-09-05T02:24:31.435Z,24.87
2018-09-05T02:25:05.177Z,23.15
2018-09-05T02:25:38.738Z,24.23
2018-09-05T02:26:12.292Z,24.92
2018-09-05T02:26:45.845Z,24.85
2018-09-05T02:27:19.349Z,24.12
2018-09-05T02:27:52.932Z,25.35
2018-09-05T02:28:26.472Z,24.32
2018-09-05T02:28:59.977Z,24.50
2018-09-05T02:29:33.590Z,25.17
2018-09-05T02:30:07.192Z,24.37
2018-09-05T02:30:40.697Z,24.32
2018-09-05T02:31:14.268Z,24.52
2018-09-05T02:31:47.796Z,23.92
2018-09-05T02:32:21.317Z,23.60
2018-09-05T02:32:54.833Z,23.95
2018-09-05T02:33:28.533Z,23.32
2018-09-05T02:34:02.070Z,23.65
2018-09-05T02:34:35.628Z,23.85
2018-09-05T02:35:09.155Z,24.32
2018-09-05T02:35:42.677Z,24.70
2018-09-05T02:36:16.387Z,24.67
2018-09-05T02:36:49.902Z,24.82
2018-09-05T02:37:23.407Z,23.83
2018-09-05T02:37:56.889Z,23.87
2018-09-05T02:38:30.455Z,25.57
2018-09-05T02:39:07.080Z,24.50
2018-09-05T02:39:40.620Z,24.47
2018-09-05T02:40:14.235Z,23.65
2018-09-05T02:40:47.828Z,23.83
2018-09-05T02:41:21.322Z,24.47
2018-09-05T02:41:54.828Z,24.65
2018-09-05T02:42:28.376Z,23.90
2018-09-05T02:43:01.916Z,24.18
2018-09-05T02:43:41.347Z,24.05
2018-09-05T02:44:19.778Z,23.95
2018-09-05T02:44:53.311Z,24.30
2018-09-05T02:45:26.841Z,23.47
2018-09-05T02:46:00.363Z,24.30
2018-09-05T02:46:33.972Z,23.85
2018-09-05T02:47:07.485Z,22.98
2018-09-05T02:47:40.981Z,24.35
2018-09-05T02:48:14.486Z,23.65
2018-09-05T02:48:47.990Z,23.32
2018-09-05T02:49:21.517Z,23.77
2018-09-05T02:49:55.048Z,24.12
2018-09-05T02:50:28.588Z,23.98
2018-09-05T02:51:02.113Z,23.95
2018-09-05T02:51:35.621Z,23.20
2018-09-05T02:52:09.289Z,23.62
2018-09-05T02:52:42.796Z,23.75
2018-09-05T02:53:16.305Z,23.12
2018-09-05T02:53:49.871Z,23.27
2018-09-05T02:54:23.454Z,23.32
2018-09-05T02:54:57.077Z,24.15
2018-09-05T02:55:36.241Z,22.85
2018-09-05T02:56:09.753Z,23.85
2018-09-05T02:56:43.283Z,23.38
2018-09-05T02:57:16.825Z,22.98
2018-09-05T02:57:50.337Z,23.70
2018-09-05T02:58:23.832Z,24.02
2018-09-05T02:58:57.360Z,23.95
2018-09-05T02:59:30.873Z,24.02
2018-09-05T03:00:04.677Z,23.30
2018-09-05T03:00:38.215Z,23.70
2018-09-05T03:01:11.723Z,23.30
2018-09-05T03:01:45.249Z,23.52
2018-09-05T03:02:18.779Z,23.70
2018-09-05T03:02:52.413Z,23.10
2018-09-05T03:03:26.279Z,23.70
2018-09-05T03:03:59.785Z,23.27
2018-09-05T03:04:33.615Z,23.18
2018-09-05T03:05:07.181Z,23.55
2018-09-05T03:05:40.732Z,23.40
2018-09-05T03:06:14.266Z,23.12
2018-09-05T03:06:47.781Z,23.25
2018-09-05T03:07:21.401Z,23.05
2018-09-05T03:07:54.918Z,22.67
2018-09-05T03:08:28.435Z,23.27
2018-09-05T03:09:02.003Z,22.87
2018-09-05T03:09:35.546Z,22.37
2018-09-05T03:10:09.113Z,22.93
2018-09-05T03:10:42.636Z,22.98
2018-09-05T03:11:16.172Z,22.65
2018-09-05T03:11:49.752Z,23.30
2018-09-05T03:12:23.272Z,22.98
2018-09-05T03:12:56.771Z,22.77
2018-09-05T03:13:30.246Z,23.12
2018-09-05T03:14:03.837Z,23.40
2018-09-05T03:14:37.367Z,22.93
2018-09-05T03:15:10.894Z,22.25
2018-09-05T03:15:44.461Z,22.80
2018-09-05T03:16:17.997Z,22.85
2018-09-05T03:16:51.517Z,22.07
2018-09-05T03:17:25.017Z,21.90
2018-09-05T03:17:58.515Z,22.48
2018-09-05T03:18:32.069Z,22.45
2018-09-05T03:19:05.631Z,22.73
2018-09-05T03:19:39.179Z,22.07
2018-09-05T03:20:12.683Z,22.58
2018-09-05T03:20:46.173Z,22.25
2018-09-05T03:21:19.709Z,21.75
2018-09-05T03:21:53.265Z,22.70
2018-09-05T03:22:26.783Z,22.32
2018-09-05T03:23:00.332Z,22.82
2018-09-05T03:23:33.894Z,22.52
2018-09-05T03:24:07.407Z,21.73
2018-09-05T03:24:40.951Z,22.37
2018-09-05T03:25:14.461Z,22.20
2018-09-05T03:25:48.013Z,22.25
2018-09-05T03:26:21.597Z,22.48
2018-09-05T03:26:55.104Z,22.37
2018-09-05T03:27:28.595Z,21.62
2018-09-05T03:28:02.128Z,22.32
2018-09-05T03:28:35.671Z,22.30
2018-09-05T03:29:09.214Z,22.27
2018-09-05T03:29:42.785Z,21.52
2018-09-05T03:30:16.316Z,22.02
2018-09-05T03:30:49.836Z,22.65
2018-09-05T03:31:23.403Z,22.48
2018-09-05T03:31:56.913Z,21.68
2018-09-05T03:32:30.636Z,22.32
2018-09-05T03:33:04.141Z,21.75
2018-09-05T03:33:37.739Z,22.22
2018-09-05T03:34:11.225Z,22.93
2018-09-05T03:34:44.798Z,21.75
2018-09-05T03:35:18.357Z,22.35
2018-09-05T03:35:51.897Z,22.17
2018-09-05T03:36:25.421Z,22.20
2018-09-05T03:36:58.953Z,22.25
2018-09-05T03:37:32.557Z,22.10
2018-09-05T03:38:06.092Z,22.15
2018-09-05T03:38:39.631Z,22.93
2018-09-05T03:39:13.221Z,21.37
2018-09-05T03:39:46.804Z,21.95
2018-09-05T03:40:20.356Z,22.60
2018-09-05T03:40:54.199Z,22.00
2018-09-05T03:41:27.740Z,22.75
2018-09-05T03:42:01.241Z,22.42
2018-09-05T03:42:34.872Z,21.77
2018-09-05T03:43:08.402Z,22.25
2018-09-05T03:43:41.941Z,21.95
2018-09-05T03:44:15.520Z,22.98
2018-09-05T03:44:49.085Z,22.05
2018-09-05T03:45:22.627Z,22.67
2018-09-05T03:45:56.167Z,22.67
2018-09-05T03:46:29.682Z,23.10
2018-09-05T03:47:03.222Z,21.80
2018-09-05T03:47:36.735Z,22.17
2018-09-05T03:48:10.269Z,23.05
2018-09-05T03:48:43.807Z,22.10
2018-09-05T03:49:17.325Z,22.22
2018-09-05T03:49:50.903Z,22.10
2018-09-05T03:50:24.393Z,22.25
2018-09-05T03:50:57.893Z,22.50
2018-09-05T03:51:31.416Z,22.10
2018-09-05T03:52:05.010Z,22.13
2018-09-05T03:52:38.568Z,21.93
2018-09-05T03:53:12.110Z,21.82
2018-09-05T03:53:45.624Z,22.40
2018-09-05T03:54:19.125Z,22.70
2018-09-05T03:54:52.664Z,22.73
2018-09-05T03:55:26.165Z,23.38
2018-09-05T03:55:59.715Z,22.17
2018-09-05T03:56:33.246Z,22.80
2018-09-05T03:57:07.134Z,22.45
2018-09-05T03:57:40.700Z,22.55
2018-09-05T03:58:14.227Z,22.20
2018-09-05T03:58:47.781Z,22.73
2018-09-05T03:59:21.360Z,22.35
2018-09-05T03:59:54.872Z,22.30
2018-09-05T04:00:31.540Z,22.80
2018-09-05T04:01:05.520Z,22.85
2018-09-05T04:01:39.074Z,22.70
2018-09-05T04:02:12.630Z,23.12
2018-09-05T04:02:46.176Z,22.40
2018-09-05T04:03:19.761Z,22.60
2018-09-05T04:03:53.280Z,22.90
2018-09-05T04:04:26.817Z,22.10
2018-09-05T04:05:00.381Z,22.45
2018-09-05T04:05:34.032Z,22.62
2018-09-05T04:06:07.612Z,22.23
2018-09-05T04:06:41.140Z,22.35
2018-09-05T04:07:14.629Z,22.17
2018-09-05T04:07:48.348Z,23.98
2018-09-05T04:08:21.904Z,22.13
2018-09-05T04:08:55.415Z,22.10
2018-09-05T04:09:28.946Z,22.70
2018-09-05T04:10:02.513Z,21.70
2018-09-05T04:10:36.032Z,21.77
2018-09-05T04:11:09.522Z,22.00
2018-09-05T04:11:43.094Z,21.87
2018-09-05T04:12:16.712Z,22.35
2018-09-05T04:12:50.204Z,22.75
2018-09-05T04:13:23.702Z,22.27
2018-09-05T04:13:57.202Z,22.93
2018-09-05T04:14:30.763Z,22.42
2018-09-05T04:15:05.113Z,22.80
2018-09-05T04:15:38.704Z,23.02
2018-09-05T04:16:12.212Z,22.77
2018-09-05T04:16:45.716Z,23.35
2018-09-05T04:17:19.439Z,22.95
2018-09-05T04:17:52.948Z,22.80
2018-09-05T04:18:26.467Z,23.00
2018-09-05T04:19:00.044Z,23.47
2018-09-05T04:19:33.528Z,24.15
2018-09-05T04:20:07.972Z,24.82
2018-09-05T04:20:41.776Z,23.90
2018-09-05T04:21:15.312Z,24.43
2018-09-05T04:21:48.858Z,24.25
2018-09-05T04:22:22.346Z,24.23
2018-09-05T04:22:55.842Z,23.65
2018-09-05T04:23:33.949Z,24.12
2018-09-05T04:24:07.492Z,25.52
2018-09-05T04:24:41.014Z,24.80
2018-09-05T04:25:14.794Z,25.20
2018-09-05T04:25:48.318Z,26.17
2018-09-05T04:26:21.824Z,24.50
2018-09-05T04:26:55.366Z,26.68
2018-09-05T04:27:28.894Z,25.75
2018-09-05T04:28:02.430Z,25.72
2018-09-05T04:28:36.000Z,26.35
2018-09-05T04:29:09.496Z,25.83
2018-09-05T04:29:43.081Z,25.88
2018-09-05T04:30:16.675Z,27.20
2018-09-05T04:30:50.165Z,25.60
2018-09-05T04:31:23.714Z,27.77
2018-09-05T04:31:57.260Z,27.07
2018-09-05T04:32:30.863Z,28.02
2018-09-05T04:33:04.400Z,28.80
2018-09-05T04:33:38.062Z,28.73
2018-09-05T04:34:11.592Z,28.52
2018-09-05T04:34:45.133Z,28.00
2018-09-05T04:35:18.698Z,28.50
2018-09-05T04:35:52.239Z,30.00
2018-09-05T04:36:25.754Z,29.67
2018-09-05T04:36:59.262Z,29.48
2018-09-05T04:37:32.778Z,29.45
2018-09-05T04:38:06.330Z,29.77
2018-09-05T04:38:40.473Z,29.98
2018-09-05T04:39:14.013Z,29.42
2018-09-05T04:39:47.552Z,30.17
2018-09-05T04:40:21.078Z,29.85
2018-09-05T04:40:54.588Z,31.42
2018-09-05T04:41:28.079Z,29.85
2018-09-05T04:42:01.636Z,30.80
2018-09-05T04:42:35.238Z,29.85
2018-09-05T04:43:08.786Z,30.05
2018-09-05T04:43:42.327Z,30.23
2018-09-05T04:44:15.848Z,30.45
2018-09-05T04:44:49.367Z,31.25
2018-09-05T04:45:23.018Z,29.92
2018-09-05T04:45:56.540Z,30.02
2018-09-05T04:46:30.902Z,31.25
2018-09-05T04:47:04.384Z,30.30
2018-09-05T04:47:37.897Z,30.35
2018-09-05T04:48:11.420Z,30.10
2018-09-05T04:48:44.958Z,30.85
2018-09-05T04:49:18.523Z,30.02
2018-09-05T04:49:52.083Z,31.35
2018-09-05T04:50:25.670Z,30.40
2018-09-05T04:50:59.511Z,30.25
2018-09-05T04:51:34.515Z,30.60
2018-09-05T04:52:08.032Z,30.50
2018-09-05T04:52:41.577Z,29.63
2018-09-05T04:53:15.160Z,30.00
2018-09-05T04:53:48.674Z,30.23
2018-09-05T04:54:22.181Z,29.82
2018-09-05T04:54:55.689Z,30.57
2018-09-05T04:55:29.225Z,30.52
2018-09-05T04:56:02.831Z,31.12
2018-09-05T04:56:36.448Z,30.23
2018-09-05T04:57:10.192Z,31.30
2018-09-05T04:57:43.750Z,30.90
2018-09-05T04:58:17.309Z,30.52
2018-09-05T04:58:50.847Z,30.35
2018-09-05T04:59:24.370Z,30.68
2018-09-05T04:59:57.876Z,29.98
2018-09-05T05:00:31.372Z,29.35
2018-09-05T05:01:05.273Z,30.17
2018-09-05T05:01:38.789Z,30.05
2018-09-05T05:02:12.320Z,29.85
2018-09-05T05:02:45.895Z,30.50
2018-09-05T05:03:19.435Z,30.55
2018-09-05T05:03:52.963Z,31.27
2018-09-05T05:04:26.536Z,31.07
2018-09-05T05:05:00.121Z,29.20
2018-09-05T05:05:33.728Z,29.27
2018-09-05T05:06:07.162Z,30.08
2018-09-05T05:06:40.689Z,31.23
2018-09-05T05:07:14.180Z,30.60
2018-09-05T05:07:47.796Z,29.82
2018-09-05T05:08:21.312Z,31.35
2018-09-05T05:08:54.855Z,29.87
2018-09-05T05:09:28.381Z,30.95
2018-09-05T05:10:01.966Z,29.87
2018-09-05T05:10:35.493Z,30.85
2018-09-05T05:11:09.007Z,29.48
2018-09-05T05:11:42.521Z,30.72
2018-09-05T05:12:16.040Z,30.25
2018-09-05T05:12:49.537Z,29.70
2018-09-05T05:13:23.082Z,30.65
2018-09-05T05:13:56.705Z,30.62
2018-09-05T05:14:30.201Z,30.90
2018-09-05T05:15:03.805Z,30.40
2018-09-05T05:15:37.424Z,30.80
2018-09-05T05:16:11.150Z,31.12
2018-09-05T05:16:44.710Z,31.35
2018-09-05T05:17:18.301Z,30.00
2018-09-05T05:17:51.835Z,29.20
2018-09-05T05:18:25.412Z,29.70
2018-09-05T05:18:59.073Z,29.48
2018-09-05T05:19:32.631Z,29.63
2018-09-05T05:20:06.183Z,29.75
2018-09-05T05:20:39.747Z,31.52
2018-09-05T05:21:13.313Z,29.77
2018-09-05T05:21:46.903Z,30.88
2018-09-05T05:22:20.512Z,30.40
2018-09-05T05:22:54.100Z,29.77
2018-09-05T05:23:27.699Z,29.98
2018-09-05T05:24:01.278Z,30.72
2018-09-05T05:24:34.839Z,30.27
2018-09-05T05:25:08.385Z,30.72
2018-09-05T05:25:41.994Z,28.95
2018-09-05T05:26:15.515Z,29.90
2018-09-05T05:26:49.197Z,29.87
2018-09-05T05:27:22.765Z,28.62
2018-09-05T05:27:56.303Z,30.85
2018-09-05T05:28:29.825Z,30.25
2018-09-05T05:29:03.387Z,29.85
2018-09-05T05:29:36.911Z,29.40
2018-09-05T05:30:10.435Z,29.75
2018-09-05T05:30:44.031Z,29.98
2018-09-05T05:31:17.606Z,29.52
2018-09-05T05:31:51.191Z,29.57
2018-09-05T05:32:24.772Z,29.75
2018-09-05T05:32:58.279Z,28.95
2018-09-05T05:33:31.841Z,29.40
2018-09-05T05:34:06.517Z,29.27
2018-09-05T05:34:40.108Z,28.83
2018-09-05T05:35:13.731Z,29.15
2018-09-05T05:35:47.287Z,28.15
2018-09-05T05:36:20.866Z,27.98
2018-09-05T05:36:54.445Z,29.60
2018-09-05T05:37:28.196Z,29.90
2018-09-05T05:38:01.961Z,28.47
2018-09-05T05:38:35.519Z,28.35
2018-09-05T05:39:10.687Z,28.40
2018-09-05T05:39:44.261Z,27.85
2018-09-05T05:40:18.149Z,28.87
2018-09-05T05:40:51.672Z,27.80
2018-09-05T05:41:25.216Z,28.23
2018-09-05T05:41:58.739Z,27.62
2018-09-05T05:42:32.256Z,28.12
2018-09-05T05:43:05.933Z,27.17
2018-09-05T05:43:39.517Z,27.90
2018-09-05T05:44:13.043Z,28.50
2018-09-05T05:44:46.601Z,26.27
2018-09-05T05:45:20.144Z,27.17
2018-09-05T05:45:53.703Z,27.98
2018-09-05T05:46:27.267Z,27.02
2018-09-05T05:47:00.818Z,26.73
2018-09-05T05:47:34.738Z,27.80
2018-09-05T05:48:08.276Z,28.12
2018-09-05T05:48:41.794Z,26.75
2018-09-05T05:49:15.302Z,26.85
2018-09-05T05:49:48.887Z,28.00
2018-09-05T05:50:22.477Z,26.37
2018-09-05T05:50:56.024Z,26.65
2018-09-05T05:51:29.855Z,27.53
2018-09-05T05:52:03.488Z,27.48
2018-09-05T05:52:37.066Z,26.62
2018-09-05T05:53:10.620Z,27.82
2018-09-05T05:53:44.191Z,27.90
2018-09-05T05:54:17.783Z,27.05
2018-09-05T05:54:51.366Z,26.68
2018-09-05T05:55:24.931Z,26.35
2018-09-05T05:55:58.490Z,25.80
2018-09-05T05:56:31.992Z,26.27
2018-09-05T05:57:05.697Z,24.60
2018-09-05T05:57:39.234Z,25.95
2018-09-05T05:58:13.292Z,25.80
2018-09-05T05:58:46.816Z,25.82
2018-09-05T05:59:20.326Z,24.90
2018-09-05T05:59:53.850Z,25.12
2018-09-05T06:00:27.476Z,25.68
2018-09-05T06:01:01.212Z,24.87
2018-09-05T06:01:34.689Z,25.02
2018-09-05T06:02:08.317Z,25.63
2018-09-05T06:02:41.866Z,25.62
2018-09-05T06:03:15.403Z,25.35
2018-09-05T06:03:49.165Z,25.45
2018-09-05T06:04:22.700Z,25.95
2018-09-05T06:04:56.216Z,24.63
2018-09-05T06:05:29.776Z,25.08
2018-09-05T06:06:03.480Z,25.52
2018-09-05T06:06:37.010Z,25.90
2018-09-05T06:07:10.543Z,25.32
2018-09-05T06:07:44.057Z,25.02
2018-09-05T06:08:17.609Z,25.82
2018-09-05T06:08:51.125Z,26.27
2018-09-05T06:09:24.637Z,25.52
2018-09-05T06:09:58.180Z,25.80
2018-09-05T06:10:31.749Z,24.98
2018-09-05T06:11:05.944Z,25.32
2018-09-05T06:11:39.608Z,25.82
2018-09-05T06:12:13.197Z,26.15
2018-09-05T06:12:46.669Z,25.55
2018-09-05T06:13:20.196Z,25.35
2018-09-05T06:13:53.741Z,25.43
2018-09-05T06:14:27.295Z,25.12
2018-09-05T06:15:00.817Z,26.70
2018-09-05T06:15:34.334Z,26.17
2018-09-05T06:16:07.856Z,26.48
2018-09-05T06:16:41.402Z,27.02
2018-09-05T06:17:14.955Z,26.48
2018-09-05T06:17:48.483Z,27.42
2018-09-05T06:18:22.213Z,26.80
2018-09-05T06:18:55.787Z,26.00
2018-09-05T06:19:29.288Z,26.15
2018-09-05T06:20:02.891Z,27.02
2018-09-05T06:20:36.402Z,25.70
2018-09-05T06:21:09.989Z,26.30
2018-09-05T06:21:43.540Z,25.88
2018-09-05T06:22:17.100Z,25.88
2018-09-05T06:22:50.622Z,26.15
2018-09-05T06:23:24.144Z,25.82
2018-09-05T06:23:57.907Z,26.07
2018-09-05T06:24:32.044Z,25.77
2018-09-05T06:25:05.664Z,26.37
2018-09-05T06:25:39.206Z,26.25
2018-09-05T06:26:12.728Z,26.93
2018-09-05T06:26:46.280Z,26.68
2018-09-05T06:27:19.856Z,26.62
2018-09-05T06:27:53.405Z,25.05
2018-09-05T06:28:26.926Z,26.75
2018-09-05T06:29:00.473Z,27.37
2018-09-05T06:29:34.017Z,26.52
2018-09-05T06:30:07.560Z,26.02
2018-09-05T06:30:41.183Z,25.65
2018-09-05T06:31:14.843Z,26.37
2018-09-05T06:31:48.428Z,25.97
2018-09-05T06:32:22.032Z,25.72
2018-09-05T06:32:55.683Z,26.12
2018-09-05T06:33:29.257Z,25.40
2018-09-05T06:34:02.853Z,26.70
2018-09-05T06:34:36.360Z,25.72
2018-09-05T06:35:09.883Z,25.27
2018-09-05T06:35:43.414Z,25.05
2018-09-05T06:36:16.970Z,25.77
2018-09-05T06:36:50.500Z,25.48
2018-09-05T06:37:24.090Z,26.17
2018-09-05T06:37:57.641Z,25.60
2018-09-05T06:38:31.124Z,25.35
2018-09-05T06:39:09.085Z,25.23
2018-09-05T06:39:42.569Z,25.62
2018-09-05T06:40:16.071Z,25.85
2018-09-05T06:40:49.680Z,25.65
2018-09-05T06:41:23.222Z,25.52
2018-09-05T06:41:56.762Z,26.12
2018-09-05T06:42:30.340Z,25.92
2018-09-05T06:43:03.895Z,25.80
2018-09-05T06:43:37.432Z,25.80
2018-09-05T06:44:10.952Z,26.30
2018-09-05T06:44:44.461Z,26.25
2018-09-05T06:45:18.004Z,26.87
2018-09-05T06:45:51.521Z,25.85
2018-09-05T06:46:25.038Z,26.62
2018-09-05T06:46:58.576Z,26.97
2018-09-05T06:47:32.113Z,26.75
2018-09-05T06:48:05.571Z,26.68
2018-09-05T06:48:39.335Z,27.85
2018-09-05T06:49:12.859Z,27.48
2018-09-05T06:49:46.412Z,27.77
2018-09-05T06:50:19.949Z,28.60
2018-09-05T06:50:59.209Z,27.85
2018-09-05T06:51:32.769Z,27.82
2018-09-05T06:52:06.293Z,28.35
2018-09-05T06:52:39.792Z,27.77
2018-09-05T06:53:13.324Z,27.27
2018-09-05T06:53:46.844Z,28.12
2018-09-05T06:54:20.368Z,27.35
2018-09-05T06:54:53.882Z,29.00
2018-09-05T06:55:27.444Z,28.07
2018-09-05T06:56:01.292Z,28.47
2018-09-05T06:56:34.847Z,28.15
2018-09-05T06:57:08.400Z,28.20
2018-09-05T06:57:41.982Z,28.62
2018-09-05T06:58:15.600Z,27.85
2018-09-05T06:58:49.116Z,27.45
2018-09-05T06:59:22.634Z,27.17
2018-09-05T06:59:56.188Z,28.80
2018-09-05T07:00:29.745Z,28.50
2018-09-05T07:01:03.313Z,28.27
2018-09-05T07:01:36.857Z,28.40
2018-09-05T07:02:10.413Z,28.30
2018-09-05T07:02:44.006Z,27.93
2018-09-05T07:03:17.587Z,28.92
2018-09-05T07:03:51.193Z,28.50
2018-09-05T07:04:24.725Z,27.67
2018-09-05T07:04:58.285Z,27.70
2018-09-05T07:05:31.834Z,29.67
2018-09-05T07:06:05.404Z,29.95
2018-09-05T07:06:39.067Z,28.40
2018-09-05T07:07:12.677Z,28.83
2018-09-05T07:07:46.267Z,29.30
2018-09-05T07:08:19.824Z,28.12
2018-09-05T07:08:53.346Z,29.02
2018-09-05T07:09:26.873Z,29.30
2018-09-05T07:10:00.418Z,28.65
2018-09-05T07:10:33.906Z,27.58
2018-09-05T07:11:07.459Z,29.25
2018-09-05T07:11:41.478Z,29.20
2018-09-05T07:12:15.009Z,28.60
2018-09-05T07:12:48.571Z,29.37
2018-09-05T07:13:22.084Z,29.32